sensor_id;sensor_type;location;lat;lon;timestamp;P1;durP1;ratioP1;P2;durP2;ratioP2
22060;SDS011;11194;48.092;-1.382;2022-09-27T00:01:06;13.18;;;2.80;;
22060;SDS011;11194;48.092;-1.382;2022-09-27T00:03:32;11.60;;;2.70;;
22060;SDS011;11194;48.092;-1.382;2022-09-27T00:06:11;12.05;;;3.15;;
22060;SDS011;11194;48.092;-1.382;2022-09-27T00:08:37;9.13;;;2.47;;
22060;SDS011;11194;48.092;-1.382;2022-09-27T00:11:04;10.43;;;3.15;;
22060;SDS011;11194;48.092;-1.382;2022-09-27T00:13:31;9.23;;;2.40;;
22060;SDS011;11194;48.092;-1.382;2022-09-27T00:15:58;8.60;;;2.30;;
22060;SDS011;11194;48.092;-1.382;2022-09-27T00:18:24;13.57;;;2.78;;
22060;SDS011;11194;48.092;-1.382;2022-09-27T00:20:51;11.80;;;2.72;;
22060;SDS011;11194;48.092;-1.382;2022-09-27T00:23:17;12.30;;;2.70;;
22060;SDS011;11194;48.092;-1.382;2022-09-27T00:25:53;10.77;;;2.78;;
22060;SDS011;11194;48.092;-1.382;2022-09-27T00:28:19;10.23;;;2.92;;
22060;SDS011;11194;48.092;-1.382;2022-09-27T00:30:45;7.97;;;2.63;;
22060;SDS011;11194;48.092;-1.382;2022-09-27T00:33:11;12.27;;;4.32;;
22060;SDS011;11194;48.092;-1.382;2022-09-27T00:35:37;7.93;;;2.70;;
22060;SDS011;11194;48.092;-1.382;2022-09-27T00:38:03;8.10;;;2.17;;
22060;SDS011;11194;48.092;-1.382;2022-09-27T00:40:29;11.20;;;3.45;;
22060;SDS011;11194;48.092;-1.382;2022-09-27T00:42:55;10.80;;;2.58;;
22060;SDS011;11194;48.092;-1.382;2022-09-27T00:45:21;6.93;;;2.45;;
22060;SDS011;11194;48.092;-1.382;2022-09-27T00:47:52;8.75;;;2.08;;
22060;SDS011;11194;48.092;-1.382;2022-09-27T00:50:21;10.93;;;2.55;;
22060;SDS011;11194;48.092;-1.382;2022-09-27T00:55:35;10.50;;;2.50;;
22060;SDS011;11194;48.092;-1.382;2022-09-27T00:58:03;7.57;;;2.08;;
22060;SDS011;11194;48.092;-1.382;2022-09-27T01:00:29;9.73;;;2.40;;
22060;SDS011;11194;48.092;-1.382;2022-09-27T01:02:55;11.38;;;2.83;;
22060;SDS011;11194;48.092;-1.382;2022-09-27T01:05:23;8.07;;;2.30;;
22060;SDS011;11194;48.092;-1.382;2022-09-27T01:07:49;9.27;;;2.40;;
22060;SDS011;11194;48.092;-1.382;2022-09-27T01:10:15;9.77;;;2.38;;
22060;SDS011;11194;48.092;-1.382;2022-09-27T01:23:04;7.97;;;2.00;;
22060;SDS011;11194;48.092;-1.382;2022-09-27T04:02:37;9.45;;;2.35;;
22060;SDS011;11194;48.092;-1.382;2022-09-27T04:05:03;13.38;;;3.00;;
22060;SDS011;11194;48.092;-1.382;2022-09-27T04:07:29;10.48;;;2.22;;
22060;SDS011;11194;48.092;-1.382;2022-09-27T04:09:55;10.05;;;3.30;;
22060;SDS011;11194;48.092;-1.382;2022-09-27T04:12:21;13.02;;;2.92;;
22060;SDS011;11194;48.092;-1.382;2022-09-27T04:14:48;12.73;;;4.03;;
22060;SDS011;11194;48.092;-1.382;2022-09-27T04:17:14;8.13;;;2.35;;
22060;SDS011;11194;48.092;-1.382;2022-09-27T04:19:40;11.68;;;2.70;;
22060;SDS011;11194;48.092;-1.382;2022-09-27T04:22:06;8.65;;;2.83;;
22060;SDS011;11194;48.092;-1.382;2022-09-27T04:24:32;11.30;;;2.90;;
22060;SDS011;11194;48.092;-1.382;2022-09-27T04:26:58;8.63;;;2.58;;
22060;SDS011;11194;48.092;-1.382;2022-09-27T04:29:24;10.93;;;2.55;;
22060;SDS011;11194;48.092;-1.382;2022-09-27T04:31:50;9.60;;;2.78;;
22060;SDS011;11194;48.092;-1.382;2022-09-27T04:34:17;8.20;;;2.50;;
22060;SDS011;11194;48.092;-1.382;2022-09-27T04:37:03;11.40;;;2.67;;
22060;SDS011;11194;48.092;-1.382;2022-09-27T04:39:29;10.75;;;2.50;;
22060;SDS011;11194;48.092;-1.382;2022-09-27T04:41:55;11.10;;;2.53;;
22060;SDS011;11194;48.092;-1.382;2022-09-27T04:44:21;8.68;;;2.30;;
22060;SDS011;11194;48.092;-1.382;2022-09-27T04:46:47;9.88;;;2.58;;
22060;SDS011;11194;48.092;-1.382;2022-09-27T04:49:13;12.90;;;2.70;;
22060;SDS011;11194;48.092;-1.382;2022-09-27T04:51:39;14.18;;;2.78;;
22060;SDS011;11194;48.092;-1.382;2022-09-27T04:54:05;7.65;;;2.30;;
22060;SDS011;11194;48.092;-1.382;2022-09-27T04:56:31;8.10;;;2.30;;
22060;SDS011;11194;48.092;-1.382;2022-09-27T04:58:57;11.10;;;2.80;;
22060;SDS011;11194;48.092;-1.382;2022-09-27T05:01:23;9.30;;;2.50;;
22060;SDS011;11194;48.092;-1.382;2022-09-27T05:03:49;9.65;;;2.83;;
22060;SDS011;11194;48.092;-1.382;2022-09-27T05:06:15;11.70;;;2.92;;
22060;SDS011;11194;48.092;-1.382;2022-09-27T05:08:41;9.75;;;2.53;;
22060;SDS011;11194;48.092;-1.382;2022-09-27T05:11:07;8.90;;;2.60;;
22060;SDS011;11194;48.092;-1.382;2022-09-27T05:13:33;11.85;;;2.88;;
22060;SDS011;11194;48.092;-1.382;2022-09-27T05:16:02;11.57;;;2.75;;
22060;SDS011;11194;48.092;-1.382;2022-09-27T05:18:29;15.25;;;2.85;;
22060;SDS011;11194;48.092;-1.382;2022-09-27T05:20:55;13.57;;;3.47;;
22060;SDS011;11194;48.092;-1.382;2022-09-27T05:23:23;13.27;;;3.22;;
22060;SDS011;11194;48.092;-1.382;2022-09-27T05:25:49;14.63;;;3.25;;
22060;SDS011;11194;48.092;-1.382;2022-09-27T05:28:17;11.63;;;2.75;;
22060;SDS011;11194;48.092;-1.382;2022-09-27T05:30:43;12.90;;;3.40;;
22060;SDS011;11194;48.092;-1.382;2022-09-27T05:33:09;12.60;;;3.20;;
22060;SDS011;11194;48.092;-1.382;2022-09-27T05:35:35;11.73;;;3.28;;
22060;SDS011;11194;48.092;-1.382;2022-09-27T05:38:01;17.08;;;4.03;;
22060;SDS011;11194;48.092;-1.382;2022-09-27T05:40:27;13.82;;;3.15;;
22060;SDS011;11194;48.092;-1.382;2022-09-27T05:42:54;11.32;;;2.80;;
22060;SDS011;11194;48.092;-1.382;2022-09-27T05:45:21;9.90;;;2.72;;
22060;SDS011;11194;48.092;-1.382;2022-09-27T05:47:54;15.27;;;2.85;;
22060;SDS011;11194;48.092;-1.382;2022-09-27T05:50:20;12.90;;;2.58;;
22060;SDS011;11194;48.092;-1.382;2022-09-27T05:52:47;11.82;;;2.60;;
22060;SDS011;11194;48.092;-1.382;2022-09-27T05:55:13;10.35;;;2.40;;
22060;SDS011;11194;48.092;-1.382;2022-09-27T05:57:39;9.30;;;2.75;;
22060;SDS011;11194;48.092;-1.382;2022-09-27T06:00:05;10.85;;;3.00;;
22060;SDS011;11194;48.092;-1.382;2022-09-27T06:02:31;13.65;;;3.08;;
22060;SDS011;11194;48.092;-1.382;2022-09-27T06:04:59;10.85;;;3.45;;
22060;SDS011;11194;48.092;-1.382;2022-09-27T06:07:28;11.02;;;3.22;;
22060;SDS011;11194;48.092;-1.382;2022-09-27T06:09:54;15.15;;;3.20;;
22060;SDS011;11194;48.092;-1.382;2022-09-27T06:12:21;11.80;;;2.97;;
22060;SDS011;11194;48.092;-1.382;2022-09-27T06:14:47;11.93;;;2.70;;
22060;SDS011;11194;48.092;-1.382;2022-09-27T06:17:13;10.80;;;2.83;;
22060;SDS011;11194;48.092;-1.382;2022-09-27T06:19:39;10.85;;;3.00;;
22060;SDS011;11194;48.092;-1.382;2022-09-27T06:22:05;13.98;;;2.95;;
22060;SDS011;11194;48.092;-1.382;2022-09-27T06:24:31;12.43;;;3.22;;
22060;SDS011;11194;48.092;-1.382;2022-09-27T06:26:57;7.57;;;3.38;;
22060;SDS011;11194;48.092;-1.382;2022-09-27T06:29:23;14.10;;;3.35;;
22060;SDS011;11194;48.092;-1.382;2022-09-27T06:31:49;16.23;;;3.55;;
22060;SDS011;11194;48.092;-1.382;2022-09-27T06:34:15;8.55;;;3.28;;
22060;SDS011;11194;48.092;-1.382;2022-09-27T06:36:42;9.93;;;3.03;;
22060;SDS011;11194;48.092;-1.382;2022-09-27T06:39:08;10.63;;;2.80;;
22060;SDS011;11194;48.092;-1.382;2022-09-27T06:41:34;14.00;;;3.38;;
22060;SDS011;11194;48.092;-1.382;2022-09-27T06:44:01;8.50;;;3.03;;
22060;SDS011;11194;48.092;-1.382;2022-09-27T06:46:27;12.00;;;3.75;;
22060;SDS011;11194;48.092;-1.382;2022-09-27T06:48:53;8.63;;;3.72;;
22060;SDS011;11194;48.092;-1.382;2022-09-27T06:51:20;12.50;;;4.00;;
22060;SDS011;11194;48.092;-1.382;2022-09-27T06:53:47;12.15;;;2.78;;
22060;SDS011;11194;48.092;-1.382;2022-09-27T06:56:13;7.13;;;3.10;;
22060;SDS011;11194;48.092;-1.382;2022-09-27T06:58:39;11.32;;;2.28;;
22060;SDS011;11194;48.092;-1.382;2022-09-27T07:01:30;11.68;;;2.65;;
22060;SDS011;11194;48.092;-1.382;2022-09-27T07:03:56;10.85;;;2.70;;
22060;SDS011;11194;48.092;-1.382;2022-09-27T07:06:22;6.78;;;2.33;;
22060;SDS011;11194;48.092;-1.382;2022-09-27T07:08:50;11.02;;;2.60;;
22060;SDS011;11194;48.092;-1.382;2022-09-27T07:11:16;10.90;;;2.60;;
22060;SDS011;11194;48.092;-1.382;2022-09-27T07:13:42;9.50;;;2.80;;
22060;SDS011;11194;48.092;-1.382;2022-09-27T07:16:12;12.90;;;2.83;;
22060;SDS011;11194;48.092;-1.382;2022-09-27T07:18:41;10.63;;;2.92;;
22060;SDS011;11194;48.092;-1.382;2022-09-27T07:21:07;17.02;;;3.70;;
22060;SDS011;11194;48.092;-1.382;2022-09-27T07:23:34;10.63;;;2.72;;
22060;SDS011;11194;48.092;-1.382;2022-09-27T07:26:01;11.48;;;2.83;;
22060;SDS011;11194;48.092;-1.382;2022-09-27T07:28:28;10.55;;;2.97;;
22060;SDS011;11194;48.092;-1.382;2022-09-27T07:30:55;10.40;;;2.83;;
22060;SDS011;11194;48.092;-1.382;2022-09-27T07:33:21;11.13;;;2.90;;
22060;SDS011;11194;48.092;-1.382;2022-09-27T07:35:47;10.05;;;3.10;;
22060;SDS011;11194;48.092;-1.382;2022-09-27T07:38:13;7.93;;;2.55;;
22060;SDS011;11194;48.092;-1.382;2022-09-27T07:40:39;10.00;;;3.45;;
22060;SDS011;11194;48.092;-1.382;2022-09-27T07:43:05;11.52;;;2.85;;
22060;SDS011;11194;48.092;-1.382;2022-09-27T07:45:34;10.73;;;2.90;;
22060;SDS011;11194;48.092;-1.382;2022-09-27T07:48:04;10.15;;;2.67;;
22060;SDS011;11194;48.092;-1.382;2022-09-27T07:50:31;10.27;;;2.55;;
22060;SDS011;11194;48.092;-1.382;2022-09-27T07:52:57;10.75;;;2.70;;
22060;SDS011;11194;48.092;-1.382;2022-09-27T07:55:23;13.70;;;3.38;;
22060;SDS011;11194;48.092;-1.382;2022-09-27T07:57:49;17.80;;;4.10;;
22060;SDS011;11194;48.092;-1.382;2022-09-27T08:00:16;11.25;;;3.13;;
22060;SDS011;11194;48.092;-1.382;2022-09-27T08:02:45;13.20;;;3.38;;
22060;SDS011;11194;48.092;-1.382;2022-09-27T08:05:12;9.70;;;2.97;;
22060;SDS011;11194;48.092;-1.382;2022-09-27T08:07:38;12.52;;;2.80;;
22060;SDS011;11194;48.092;-1.382;2022-09-27T08:10:05;13.02;;;3.20;;
22060;SDS011;11194;48.092;-1.382;2022-09-27T08:12:32;7.50;;;2.60;;
22060;SDS011;11194;48.092;-1.382;2022-09-27T08:14:58;13.43;;;3.05;;
22060;SDS011;11194;48.092;-1.382;2022-09-27T08:17:29;10.82;;;2.55;;
22060;SDS011;11194;48.092;-1.382;2022-09-27T08:19:55;10.32;;;2.75;;
22060;SDS011;11194;48.092;-1.382;2022-09-27T08:22:21;11.25;;;3.03;;
22060;SDS011;11194;48.092;-1.382;2022-09-27T08:24:47;11.63;;;2.67;;
22060;SDS011;11194;48.092;-1.382;2022-09-27T08:27:14;9.57;;;2.50;;
22060;SDS011;11194;48.092;-1.382;2022-09-27T08:29:41;14.85;;;3.33;;
22060;SDS011;11194;48.092;-1.382;2022-09-27T08:32:07;12.48;;;3.08;;
22060;SDS011;11194;48.092;-1.382;2022-09-27T08:34:33;9.93;;;3.25;;
22060;SDS011;11194;48.092;-1.382;2022-09-27T08:36:59;10.98;;;2.50;;
22060;SDS011;11194;48.092;-1.382;2022-09-27T08:39:25;12.32;;;2.47;;
22060;SDS011;11194;48.092;-1.382;2022-09-27T08:41:53;12.05;;;3.03;;
22060;SDS011;11194;48.092;-1.382;2022-09-27T08:47:08;10.93;;;3.40;;
22060;SDS011;11194;48.092;-1.382;2022-09-27T08:49:48;11.38;;;2.55;;
22060;SDS011;11194;48.092;-1.382;2022-09-27T08:52:17;14.43;;;3.00;;
22060;SDS011;11194;48.092;-1.382;2022-09-27T08:54:45;16.02;;;3.17;;
22060;SDS011;11194;48.092;-1.382;2022-09-27T08:57:12;12.93;;;3.40;;
22060;SDS011;11194;48.092;-1.382;2022-09-27T08:59:40;17.77;;;2.97;;
22060;SDS011;11194;48.092;-1.382;2022-09-27T09:02:17;17.38;;;3.25;;
22060;SDS011;11194;48.092;-1.382;2022-09-27T09:04:44;13.52;;;2.97;;
22060;SDS011;11194;48.092;-1.382;2022-09-27T09:33:39;15.20;;;3.20;;
22060;SDS011;11194;48.092;-1.382;2022-09-27T09:36:18;11.38;;;3.53;;
22060;SDS011;11194;48.092;-1.382;2022-09-27T09:38:52;13.25;;;3.33;;
22060;SDS011;11194;48.092;-1.382;2022-09-27T09:41:21;10.65;;;3.22;;
22060;SDS011;11194;48.092;-1.382;2022-09-27T09:43:49;15.52;;;3.60;;
22060;SDS011;11194;48.092;-1.382;2022-09-27T09:46:19;11.20;;;2.97;;
22060;SDS011;11194;48.092;-1.382;2022-09-27T09:51:17;12.30;;;3.10;;
22060;SDS011;11194;48.092;-1.382;2022-09-27T09:56:35;13.20;;;3.75;;
22060;SDS011;11194;48.092;-1.382;2022-09-27T09:59:03;12.80;;;3.40;;
22060;SDS011;11194;48.092;-1.382;2022-09-27T10:01:42;12.35;;;3.50;;
22060;SDS011;11194;48.092;-1.382;2022-09-27T10:04:30;11.93;;;3.28;;
22060;SDS011;11194;48.092;-1.382;2022-09-27T10:06:58;24.02;;;4.20;;
22060;SDS011;11194;48.092;-1.382;2022-09-27T10:09:25;15.93;;;3.80;;
22060;SDS011;11194;48.092;-1.382;2022-09-27T10:11:52;13.40;;;3.28;;
22060;SDS011;11194;48.092;-1.382;2022-09-27T10:14:19;13.18;;;3.53;;
22060;SDS011;11194;48.092;-1.382;2022-09-27T10:16:54;15.07;;;4.15;;
22060;SDS011;11194;48.092;-1.382;2022-09-27T10:19:29;11.43;;;3.72;;
22060;SDS011;11194;48.092;-1.382;2022-09-27T10:22:01;16.15;;;4.03;;
22060;SDS011;11194;48.092;-1.382;2022-09-27T10:24:27;20.27;;;3.42;;
22060;SDS011;11194;48.092;-1.382;2022-09-27T10:26:58;16.20;;;3.95;;
22060;SDS011;11194;48.092;-1.382;2022-09-27T10:29:31;17.83;;;3.72;;
22060;SDS011;11194;48.092;-1.382;2022-09-27T10:31:58;12.10;;;3.60;;
22060;SDS011;11194;48.092;-1.382;2022-09-27T10:34:37;12.00;;;4.20;;
22060;SDS011;11194;48.092;-1.382;2022-09-27T10:37:10;15.18;;;4.10;;
22060;SDS011;11194;48.092;-1.382;2022-09-27T10:39:41;12.48;;;3.60;;
22060;SDS011;11194;48.092;-1.382;2022-09-27T10:44:53;15.90;;;3.85;;
22060;SDS011;11194;48.092;-1.382;2022-09-27T10:47:20;14.90;;;3.78;;
22060;SDS011;11194;48.092;-1.382;2022-09-27T10:49:47;18.40;;;4.15;;
22060;SDS011;11194;48.092;-1.382;2022-09-27T10:54:56;11.48;;;3.10;;
22060;SDS011;11194;48.092;-1.382;2022-09-27T10:57:24;11.52;;;4.18;;
22060;SDS011;11194;48.092;-1.382;2022-09-27T10:59:53;11.85;;;3.42;;
22060;SDS011;11194;48.092;-1.382;2022-09-27T11:02:26;14.18;;;3.67;;
22060;SDS011;11194;48.092;-1.382;2022-09-27T11:05:07;12.98;;;3.63;;
22060;SDS011;11194;48.092;-1.382;2022-09-27T11:07:35;14.52;;;3.28;;
22060;SDS011;11194;48.092;-1.382;2022-09-27T11:10:05;14.48;;;4.00;;
22060;SDS011;11194;48.092;-1.382;2022-09-27T11:12:44;12.30;;;3.97;;
22060;SDS011;11194;48.092;-1.382;2022-09-27T11:15:15;15.02;;;3.78;;
22060;SDS011;11194;48.092;-1.382;2022-09-27T11:17:53;11.02;;;3.80;;
22060;SDS011;11194;48.092;-1.382;2022-09-27T11:20:27;17.33;;;4.43;;
22060;SDS011;11194;48.092;-1.382;2022-09-27T11:25:29;11.52;;;3.58;;
22060;SDS011;11194;48.092;-1.382;2022-09-27T11:36:15;15.85;;;3.85;;
22060;SDS011;11194;48.092;-1.382;2022-09-27T11:41:33;19.20;;;4.13;;
22060;SDS011;11194;48.092;-1.382;2022-09-27T11:44:08;16.08;;;4.05;;
22060;SDS011;11194;48.092;-1.382;2022-09-27T11:46:45;14.77;;;3.95;;
22060;SDS011;11194;48.092;-1.382;2022-09-27T12:10:37;19.45;;;4.38;;
22060;SDS011;11194;48.092;-1.382;2022-09-27T12:13:04;20.63;;;4.85;;
22060;SDS011;11194;48.092;-1.382;2022-09-27T12:15:31;15.35;;;4.15;;
22060;SDS011;11194;48.092;-1.382;2022-09-27T12:18:16;18.38;;;4.78;;
22060;SDS011;11194;48.092;-1.382;2022-09-27T12:20:45;15.68;;;5.57;;
22060;SDS011;11194;48.092;-1.382;2022-09-27T12:25:43;13.77;;;4.05;;
22060;SDS011;11194;48.092;-1.382;2022-09-27T12:28:13;21.70;;;4.47;;
22060;SDS011;11194;48.092;-1.382;2022-09-27T12:30:45;17.65;;;4.10;;
22060;SDS011;11194;48.092;-1.382;2022-09-27T12:35:50;22.88;;;4.95;;
22060;SDS011;11194;48.092;-1.382;2022-09-27T12:38:18;15.80;;;4.13;;
22060;SDS011;11194;48.092;-1.382;2022-09-27T12:40:47;19.27;;;4.57;;
22060;SDS011;11194;48.092;-1.382;2022-09-27T12:43:21;19.88;;;5.45;;
22060;SDS011;11194;48.092;-1.382;2022-09-27T12:50:53;18.95;;;4.03;;
22060;SDS011;11194;48.092;-1.382;2022-09-27T12:53:24;16.83;;;3.95;;
22060;SDS011;11194;48.092;-1.382;2022-09-27T12:55:54;17.63;;;4.18;;
22060;SDS011;11194;48.092;-1.382;2022-09-27T13:00:58;19.88;;;4.10;;
22060;SDS011;11194;48.092;-1.382;2022-09-27T13:06:15;17.75;;;4.40;;
22060;SDS011;11194;48.092;-1.382;2022-09-27T13:09:09;16.27;;;4.82;;
22060;SDS011;11194;48.092;-1.382;2022-09-27T13:14:19;16.67;;;4.32;;
22060;SDS011;11194;48.092;-1.382;2022-09-27T13:16:46;17.20;;;4.60;;
22060;SDS011;11194;48.092;-1.382;2022-09-27T13:21:58;15.30;;;3.67;;
22060;SDS011;11194;48.092;-1.382;2022-09-27T13:29:50;15.55;;;3.67;;
22060;SDS011;11194;48.092;-1.382;2022-09-27T13:32:23;16.75;;;3.78;;
22060;SDS011;11194;48.092;-1.382;2022-09-27T13:34:52;17.05;;;4.18;;
22060;SDS011;11194;48.092;-1.382;2022-09-27T13:37:33;14.85;;;4.13;;
22060;SDS011;11194;48.092;-1.382;2022-09-27T13:40:20;16.52;;;3.70;;
22060;SDS011;11194;48.092;-1.382;2022-09-27T13:45:35;11.75;;;3.75;;
22060;SDS011;11194;48.092;-1.382;2022-09-27T13:48:06;16.00;;;4.18;;
22060;SDS011;11194;48.092;-1.382;2022-09-27T13:50:52;11.73;;;3.90;;
22060;SDS011;11194;48.092;-1.382;2022-09-27T13:55:53;13.07;;;3.13;;
22060;SDS011;11194;48.092;-1.382;2022-09-27T13:58:32;10.85;;;3.28;;
22060;SDS011;11194;48.092;-1.382;2022-09-27T14:01:02;11.25;;;3.28;;
22060;SDS011;11194;48.092;-1.382;2022-09-27T14:03:31;12.95;;;3.25;;
22060;SDS011;11194;48.092;-1.382;2022-09-27T14:06:03;14.93;;;3.30;;
22060;SDS011;11194;48.092;-1.382;2022-09-27T14:10:55;12.00;;;2.67;;
22060;SDS011;11194;48.092;-1.382;2022-09-27T14:13:22;10.55;;;2.67;;
22060;SDS011;11194;48.092;-1.382;2022-09-27T14:15:50;13.85;;;3.17;;
22060;SDS011;11194;48.092;-1.382;2022-09-27T14:18:17;7.93;;;2.20;;
22060;SDS011;11194;48.092;-1.382;2022-09-27T14:20:44;12.30;;;2.88;;
22060;SDS011;11194;48.092;-1.382;2022-09-27T14:23:13;10.82;;;2.90;;
22060;SDS011;11194;48.092;-1.382;2022-09-27T14:25:48;11.27;;;2.60;;
22060;SDS011;11194;48.092;-1.382;2022-09-27T14:30:46;13.50;;;2.97;;
22060;SDS011;11194;48.092;-1.382;2022-09-27T14:33:26;12.70;;;3.28;;
22060;SDS011;11194;48.092;-1.382;2022-09-27T14:35:52;14.80;;;3.25;;
22060;SDS011;11194;48.092;-1.382;2022-09-27T14:38:37;13.13;;;3.13;;
22060;SDS011;11194;48.092;-1.382;2022-09-27T14:41:04;12.70;;;3.58;;
22060;SDS011;11194;48.092;-1.382;2022-09-27T14:43:32;10.55;;;2.97;;
22060;SDS011;11194;48.092;-1.382;2022-09-27T14:46:00;13.68;;;3.20;;
22060;SDS011;11194;48.092;-1.382;2022-09-27T14:48:27;10.52;;;2.75;;
22060;SDS011;11194;48.092;-1.382;2022-09-27T14:51:00;13.63;;;3.00;;
22060;SDS011;11194;48.092;-1.382;2022-09-27T14:53:50;12.55;;;3.05;;
22060;SDS011;11194;48.092;-1.382;2022-09-27T14:56:21;12.75;;;2.83;;
22060;SDS011;11194;48.092;-1.382;2022-09-27T14:58:51;12.05;;;2.92;;
22060;SDS011;11194;48.092;-1.382;2022-09-27T15:01:19;15.40;;;3.35;;
22060;SDS011;11194;48.092;-1.382;2022-09-27T15:03:47;13.75;;;3.22;;
22060;SDS011;11194;48.092;-1.382;2022-09-27T15:06:14;11.48;;;3.40;;
22060;SDS011;11194;48.092;-1.382;2022-09-27T15:08:40;10.82;;;2.60;;
22060;SDS011;11194;48.092;-1.382;2022-09-27T15:11:11;9.57;;;2.33;;
22060;SDS011;11194;48.092;-1.382;2022-09-27T15:13:38;9.05;;;3.00;;
22060;SDS011;11194;48.092;-1.382;2022-09-27T15:16:17;9.35;;;2.60;;
22060;SDS011;11194;48.092;-1.382;2022-09-27T15:18:47;8.05;;;2.15;;
22060;SDS011;11194;48.092;-1.382;2022-09-27T15:21:30;6.63;;;2.17;;
22060;SDS011;11194;48.092;-1.382;2022-09-27T15:23:57;6.70;;;2.38;;
22060;SDS011;11194;48.092;-1.382;2022-09-27T15:26:36;10.73;;;2.58;;
22060;SDS011;11194;48.092;-1.382;2022-09-27T15:29:02;6.10;;;2.08;;
22060;SDS011;11194;48.092;-1.382;2022-09-27T15:31:30;8.23;;;2.60;;
22060;SDS011;11194;48.092;-1.382;2022-09-27T15:33:56;8.93;;;2.47;;
22060;SDS011;11194;48.092;-1.382;2022-09-27T15:39:08;12.52;;;2.50;;
22060;SDS011;11194;48.092;-1.382;2022-09-27T15:47:03;10.43;;;2.58;;
22060;SDS011;11194;48.092;-1.382;2022-09-27T15:49:30;14.73;;;3.03;;
22060;SDS011;11194;48.092;-1.382;2022-09-27T15:52:00;9.98;;;2.45;;
22060;SDS011;11194;48.092;-1.382;2022-09-27T15:54:28;10.10;;;2.70;;
22060;SDS011;11194;48.092;-1.382;2022-09-27T15:56:55;9.70;;;3.00;;
22060;SDS011;11194;48.092;-1.382;2022-09-27T15:59:28;10.75;;;2.97;;
22060;SDS011;11194;48.092;-1.382;2022-09-27T16:01:58;10.70;;;2.67;;
22060;SDS011;11194;48.092;-1.382;2022-09-27T16:04:25;12.80;;;3.28;;
22060;SDS011;11194;48.092;-1.382;2022-09-27T16:06:54;9.98;;;2.63;;
22060;SDS011;11194;48.092;-1.382;2022-09-27T16:09:20;11.50;;;3.63;;
22060;SDS011;11194;48.092;-1.382;2022-09-27T16:11:47;12.40;;;3.75;;
22060;SDS011;11194;48.092;-1.382;2022-09-27T16:14:13;12.57;;;2.97;;
22060;SDS011;11194;48.092;-1.382;2022-09-27T16:16:53;11.77;;;3.35;;
22060;SDS011;11194;48.092;-1.382;2022-09-27T16:19:20;16.50;;;3.65;;
22060;SDS011;11194;48.092;-1.382;2022-09-27T16:21:47;11.38;;;3.45;;
22060;SDS011;11194;48.092;-1.382;2022-09-27T16:24:14;12.75;;;3.45;;
22060;SDS011;11194;48.092;-1.382;2022-09-27T16:26:41;10.90;;;3.10;;
22060;SDS011;11194;48.092;-1.382;2022-09-27T16:29:08;9.75;;;3.33;;
22060;SDS011;11194;48.092;-1.382;2022-09-27T16:31:34;12.82;;;6.00;;
22060;SDS011;11194;48.092;-1.382;2022-09-27T16:34:01;16.73;;;7.38;;
22060;SDS011;11194;48.092;-1.382;2022-09-27T16:36:27;13.88;;;4.75;;
22060;SDS011;11194;48.092;-1.382;2022-09-27T16:38:53;9.07;;;2.97;;
22060;SDS011;11194;48.092;-1.382;2022-09-27T16:41:20;7.28;;;3.40;;
22060;SDS011;11194;48.092;-1.382;2022-09-27T16:43:46;9.18;;;2.67;;
22060;SDS011;11194;48.092;-1.382;2022-09-27T16:46:13;5.10;;;2.53;;
22060;SDS011;11194;48.092;-1.382;2022-09-27T16:48:42;5.88;;;2.30;;
22060;SDS011;11194;48.092;-1.382;2022-09-27T16:51:14;8.90;;;2.33;;
22060;SDS011;11194;48.092;-1.382;2022-09-27T16:53:59;8.85;;;2.80;;
22060;SDS011;11194;48.092;-1.382;2022-09-27T16:56:26;8.57;;;4.07;;
22060;SDS011;11194;48.092;-1.382;2022-09-27T16:58:53;7.47;;;2.85;;
22060;SDS011;11194;48.092;-1.382;2022-09-27T17:01:19;6.15;;;2.72;;
22060;SDS011;11194;48.092;-1.382;2022-09-27T17:03:49;5.10;;;2.88;;
22060;SDS011;11194;48.092;-1.382;2022-09-27T17:06:16;9.77;;;3.30;;
22060;SDS011;11194;48.092;-1.382;2022-09-27T17:08:43;7.90;;;2.67;;
22060;SDS011;11194;48.092;-1.382;2022-09-27T17:11:16;9.07;;;2.42;;
22060;SDS011;11194;48.092;-1.382;2022-09-27T17:13:43;10.88;;;3.33;;
22060;SDS011;11194;48.092;-1.382;2022-09-27T17:16:09;6.57;;;2.72;;
22060;SDS011;11194;48.092;-1.382;2022-09-27T17:18:39;10.30;;;3.42;;
22060;SDS011;11194;48.092;-1.382;2022-09-27T17:21:06;7.68;;;3.17;;
22060;SDS011;11194;48.092;-1.382;2022-09-27T17:23:33;6.35;;;2.88;;
22060;SDS011;11194;48.092;-1.382;2022-09-27T17:26:06;6.53;;;2.70;;
22060;SDS011;11194;48.092;-1.382;2022-09-27T17:28:34;3.08;;;2.20;;
22060;SDS011;11194;48.092;-1.382;2022-09-27T17:31:08;7.72;;;2.83;;
22060;SDS011;11194;48.092;-1.382;2022-09-27T17:33:42;5.80;;;2.30;;
22060;SDS011;11194;48.092;-1.382;2022-09-27T17:36:13;6.53;;;3.10;;
22060;SDS011;11194;48.092;-1.382;2022-09-27T17:38:40;6.60;;;2.55;;
22060;SDS011;11194;48.092;-1.382;2022-09-27T17:41:07;4.97;;;2.60;;
22060;SDS011;11194;48.092;-1.382;2022-09-27T17:43:35;6.03;;;2.67;;
22060;SDS011;11194;48.092;-1.382;2022-09-27T17:46:05;6.60;;;2.38;;
22060;SDS011;11194;48.092;-1.382;2022-09-27T17:48:31;4.97;;;2.22;;
22060;SDS011;11194;48.092;-1.382;2022-09-27T17:51:16;5.28;;;2.20;;
22060;SDS011;11194;48.092;-1.382;2022-09-27T17:53:42;4.43;;;2.25;;
22060;SDS011;11194;48.092;-1.382;2022-09-27T17:56:09;5.55;;;2.10;;
22060;SDS011;11194;48.092;-1.382;2022-09-27T17:58:35;5.97;;;2.25;;
22060;SDS011;11194;48.092;-1.382;2022-09-27T18:01:02;7.03;;;2.38;;
22060;SDS011;11194;48.092;-1.382;2022-09-27T18:03:29;3.35;;;2.40;;
22060;SDS011;11194;48.092;-1.382;2022-09-27T18:05:55;7.50;;;2.88;;
22060;SDS011;11194;48.092;-1.382;2022-09-27T18:08:22;4.05;;;2.50;;
22060;SDS011;11194;48.092;-1.382;2022-09-27T18:10:48;6.30;;;2.60;;
22060;SDS011;11194;48.092;-1.382;2022-09-27T18:13:14;6.32;;;2.67;;
22060;SDS011;11194;48.092;-1.382;2022-09-27T18:15:41;4.35;;;2.30;;
22060;SDS011;11194;48.092;-1.382;2022-09-27T18:18:07;4.32;;;2.50;;
22060;SDS011;11194;48.092;-1.382;2022-09-27T18:20:33;2.55;;;1.90;;
22060;SDS011;11194;48.092;-1.382;2022-09-27T18:23:00;2.78;;;2.05;;
22060;SDS011;11194;48.092;-1.382;2022-09-27T18:25:26;3.83;;;1.80;;
22060;SDS011;11194;48.092;-1.382;2022-09-27T18:27:52;1.98;;;1.40;;
22060;SDS011;11194;48.092;-1.382;2022-09-27T18:30:19;5.57;;;1.92;;
22060;SDS011;11194;48.092;-1.382;2022-09-27T18:32:45;3.28;;;1.60;;
22060;SDS011;11194;48.092;-1.382;2022-09-27T18:35:14;4.70;;;1.90;;
22060;SDS011;11194;48.092;-1.382;2022-09-27T18:37:40;3.83;;;1.83;;
22060;SDS011;11194;48.092;-1.382;2022-09-27T18:40:06;4.70;;;1.65;;
22060;SDS011;11194;48.092;-1.382;2022-09-27T18:42:32;3.40;;;1.40;;
22060;SDS011;11194;48.092;-1.382;2022-09-27T18:44:59;2.92;;;1.55;;
22060;SDS011;11194;48.092;-1.382;2022-09-27T18:47:25;3.10;;;1.30;;
22060;SDS011;11194;48.092;-1.382;2022-09-27T18:49:51;2.22;;;1.10;;
22060;SDS011;11194;48.092;-1.382;2022-09-27T18:52:17;3.28;;;1.30;;
22060;SDS011;11194;48.092;-1.382;2022-09-27T18:54:43;2.40;;;1.02;;
22060;SDS011;11194;48.092;-1.382;2022-09-27T18:57:09;3.45;;;1.60;;
22060;SDS011;11194;48.092;-1.382;2022-09-27T18:59:35;3.40;;;1.45;;
22060;SDS011;11194;48.092;-1.382;2022-09-27T19:02:01;3.70;;;1.30;;
22060;SDS011;11194;48.092;-1.382;2022-09-27T19:04:27;4.88;;;1.25;;
22060;SDS011;11194;48.092;-1.382;2022-09-27T19:06:54;3.22;;;1.40;;
22060;SDS011;11194;48.092;-1.382;2022-09-27T19:09:21;4.05;;;1.38;;
22060;SDS011;11194;48.092;-1.382;2022-09-27T19:11:50;3.78;;;1.05;;
22060;SDS011;11194;48.092;-1.382;2022-09-27T19:14:17;3.35;;;1.10;;
22060;SDS011;11194;48.092;-1.382;2022-09-27T19:16:44;4.35;;;1.20;;
22060;SDS011;11194;48.092;-1.382;2022-09-27T19:19:11;2.78;;;1.10;;
22060;SDS011;11194;48.092;-1.382;2022-09-27T19:21:38;3.38;;;1.40;;
22060;SDS011;11194;48.092;-1.382;2022-09-27T19:24:04;2.47;;;1.30;;